Time;durP1;ratioP1;P1;durP2;ratioP2;P2;SDS_P1;SDS_P2;PMS_P1;PMS_P2;Temp;Humidity;BMP_temperature;BMP_pressure;BME280_temperature;BME280_humidity;BME280_pressure;Samples;Min_cycle;Max_cycle;Signal;HPM_P1;HPM_P2
2022/12/11 00:01:50;;;;;;;48.70;15.23;;;-0.70;99.90;;;;;;5030946;28;20037;-83
2022/12/11 00:04:16;;;;;;;37.47;11.37;;;0.00;99.90;;;;;;5047114;28;20280;-83
2022/12/11 00:06:41;;;;;;;38.47;11.60;;;-0.70;99.90;;;;;;5030978;28;20384;-83
2022/12/11 00:09:07;;;;;;;44.03;13.00;;;-0.80;99.90;;;;;;5030801;28;20295;-83
2022/12/11 00:11:33;;;;;;;39.97;12.05;;;-0.40;99.90;;;;;;5031204;28;20041;-84
2022/12/11 00:13:58;;;;;;;43.85;13.00;;;-0.70;99.90;;;;;;5047297;28;20072;-84
2022/12/11 00:16:24;;;;;;;45.65;12.73;;;-0.70;99.90;;;;;;5030418;28;20378;-83
2022/12/11 00:18:50;;;;;;;36.85;11.43;;;-0.70;99.90;;;;;;5030838;28;20045;-83
2022/12/11 00:21:15;;;;;;;40.15;12.00;;;-0.70;99.90;;;;;;5030481;28;20037;-83
2022/12/11 00:23:41;;;;;;;27.23;9.53;;;-0.70;99.90;;;;;;5013773;28;20068;-83
2022/12/11 00:26:11;;;;;;;33.10;11.13;;;-0.70;99.90;;;;;;5029792;28;20300;-82
2022/12/11 00:28:36;;;;;;;34.72;10.88;;;-1.10;99.90;;;;;;5030530;28;20097;-82
2022/12/11 00:31:07;;;;;;;42.72;12.35;;;-0.60;99.90;;;;;;5047089;28;20053;-83
2022/12/11 00:33:33;;;;;;;45.45;12.32;;;-0.60;99.90;;;;;;5014176;28;20416;-84
2022/12/11 00:35:58;;;;;;;33.28;10.07;;;-0.60;99.90;;;;;;5030138;28;20045;-84
2022/12/11 00:38:24;;;;;;;39.03;11.50;;;-0.50;99.90;;;;;;5029851;28;20044;-83
2022/12/11 00:40:50;;;;;;;41.80;11.55;;;-0.60;99.90;;;;;;5047918;28;20124;-83
2022/12/11 00:43:16;;;;;;;44.90;12.02;;;-0.50;99.90;;;;;;5030612;28;20029;-84
2022/12/11 00:45:44;;;;;;;34.83;11.82;;;-0.50;99.90;;;;;;5047030;28;20136;-83
2022/12/11 00:48:10;;;;;;;32.65;11.13;;;-0.50;99.90;;;;;;5013415;28;20079;-84
2022/12/11 00:50:37;;;;;;;38.92;11.63;;;-0.50;99.90;;;;;;5030092;28;20044;-83
2022/12/11 00:53:04;;;;;;;44.72;11.80;;;-0.50;99.90;;;;;;5013386;28;20113;-83
2022/12/11 00:55:31;;;;;;;35.92;11.38;;;-0.10;99.90;;;;;;5029957;28;20088;-82
2022/12/11 00:57:59;;;;;;;42.25;13.20;;;-0.50;99.90;;;;;;5030327;28;20041;-83
2022/12/11 01:00:25;;;;;;;41.92;11.93;;;-0.40;99.90;;;;;;5030204;28;20072;-82
2022/12/11 01:02:51;;;;;;;41.30;11.48;;;-0.40;99.90;;;;;;5047450;28;20037;-82
2022/12/11 01:05:16;;;;;;;45.10;11.47;;;-0.50;99.90;;;;;;5045803;28;20053;-82
2022/12/11 01:07:42;;;;;;;36.55;12.18;;;-0.40;99.90;;;;;;5030420;28;20037;-83
2022/12/11 01:10:23;;;;;;;36.40;11.18;;;-0.40;99.90;;;;;;5046626;28;20361;-83
2022/12/11 01:12:57;;;;;;;43.45;12.55;;;-0.40;99.90;;;;;;5028303;28;20033;-83
2022/12/11 01:15:27;;;;;;;39.13;12.07;;;-0.40;99.90;;;;;;5029688;28;20121;-83
2022/12/11 01:17:53;;;;;;;39.78;11.32;;;-0.40;99.90;;;;;;5029626;28;20072;-82
2022/12/11 01:20:20;;;;;;;45.72;12.80;;;-0.40;99.90;;;;;;5029624;28;20044;-82
2022/12/11 01:22:46;;;;;;;43.65;12.93;;;-0.40;99.90;;;;;;5013524;28;20405;-83
2022/12/11 01:25:15;;;;;;;45.22;13.13;;;-0.40;99.90;;;;;;5013089;28;20400;-83
2022/12/11 01:27:41;;;;;;;43.25;12.18;;;-0.40;99.90;;;;;;5046113;28;20497;-83
2022/12/11 01:30:08;;;;;;;37.63;12.60;;;-0.40;99.90;;;;;;5029345;28;20045;-83
2022/12/11 01:32:34;;;;;;;51.85;13.20;;;-0.30;99.90;;;;;;5012910;28;20494;-82
2022/12/11 01:35:03;;;;;;;56.67;14.27;;;0.40;99.90;;;;;;5029240;28;20132;-83
2022/12/11 01:37:29;;;;;;;51.30;12.60;;;-0.40;99.90;;;;;;5028759;28;20061;-83
2022/12/11 01:39:55;;;;;;;42.45;12.10;;;-0.30;99.90;;;;;;5045465;28;20134;-83
2022/12/11 01:42:21;;;;;;;41.93;13.37;;;-0.30;99.90;;;;;;5012831;28;20071;-83
2022/12/11 01:44:46;;;;;;;54.58;13.85;;;-0.30;99.90;;;;;;5029338;28;20037;-83
2022/12/11 01:47:12;;;;;;;38.70;12.13;;;-0.30;99.90;;;;;;5045493;28;20045;-83
2022/12/11 01:49:39;;;;;;;52.65;14.27;;;-0.30;99.90;;;;;;5045447;28;20038;-83
2022/12/11 01:52:10;;;;;;;50.53;13.05;;;-0.20;99.90;;;;;;5028802;28;20042;-83
2022/12/11 01:54:36;;;;;;;51.72;13.63;;;-0.20;99.90;;;;;;5028673;28;20132;-83
2022/12/11 01:57:06;;;;;;;56.28;15.20;;;-0.20;99.90;;;;;;5045267;28;20472;-83
2022/12/11 01:59:36;;;;;;;50.90;13.73;;;-0.20;99.90;;;;;;5028727;28;20122;-83
2022/12/11 02:02:08;;;;;;;50.28;14.38;;;-0.20;99.90;;;;;;5012715;28;20559;-82
2022/12/11 02:04:37;;;;;;;51.38;13.18;;;-0.20;99.90;;;;;;5028737;28;20048;-83
2022/12/11 02:07:04;;;;;;;52.65;14.75;;;-0.20;99.90;;;;;;5028864;28;20045;-82
2022/12/11 02:09:34;;;;;;;52.55;14.32;;;-0.10;99.90;;;;;;5027993;28;20037;-82
2022/12/11 02:12:06;;;;;;;55.65;14.15;;;0.50;99.90;;;;;;5028729;28;20095;-83
2022/12/11 02:14:50;;;;;;;50.53;14.43;;;-0.10;99.90;;;;;;5028414;28;20106;-83
2022/12/11 02:17:39;;;;;;;61.67;14.93;;;-0.10;99.90;;;;;;5044536;28;20187;-83
2022/12/11 02:20:28;;;;;;;54.28;13.70;;;-0.10;99.90;;;;;;5025769;28;20037;-83
2022/12/11 02:23:08;;;;;;;52.95;13.68;;;-0.10;99.90;;;;;;5028610;28;20036;-82
2022/12/11 02:25:46;;;;;;;58.63;15.98;;;-0.10;99.90;;;;;;5044581;28;20045;-81
2022/12/11 02:28:15;;;;;;;66.97;15.88;;;-0.10;99.90;;;;;;5028335;28;20045;-81
2022/12/11 02:30:45;;;;;;;57.92;14.73;;;-0.10;99.90;;;;;;5044325;28;20087;-82
2022/12/11 02:33:14;;;;;;;49.85;14.43;;;-0.10;99.90;;;;;;5026191;28;20049;-82
2022/12/11 02:35:43;;;;;;;39.90;11.50;;;-0.10;99.90;;;;;;5027851;28;20043;-82
2022/12/11 02:38:16;;;;;;;63.38;15.45;;;-0.10;99.90;;;;;;5028270;28;20095;-82
2022/12/11 02:40:43;;;;;;;51.00;14.20;;;0.00;99.90;;;;;;5028359;28;20133;-82
2022/12/11 02:43:13;;;;;;;57.92;14.80;;;0.00;99.90;;;;;;5028712;28;20037;-82
2022/12/11 02:45:40;;;;;;;54.67;14.00;;;-0.10;99.90;;;;;;5028188;28;20390;-81
2022/12/11 02:48:09;;;;;;;50.10;13.55;;;0.70;99.90;;;;;;5028282;28;20042;-82
2022/12/11 02:50:41;;;;;;;65.50;14.98;;;0.30;99.90;;;;;;5027897;28;20045;-81
2022/12/11 02:53:09;;;;;;;44.08;13.18;;;0.00;99.90;;;;;;5028536;28;20041;-82
2022/12/11 02:55:36;;;;;;;58.00;14.75;;;0.40;99.90;;;;;;5044670;28;20041;-83
2022/12/11 02:58:07;;;;;;;55.85;14.63;;;0.00;99.90;;;;;;5028199;28;20049;-83
2022/12/11 03:00:33;;;;;;;48.30;13.35;;;0.10;99.90;;;;;;5028412;28;20065;-83
2022/12/11 03:02:59;;;;;;;57.85;14.77;;;0.90;99.90;;;;;;5044845;28;20500;-82
2022/12/11 03:05:26;;;;;;;47.08;14.23;;;0.90;99.90;;;;;;5042393;28;20486;-83
2022/12/11 03:07:52;;;;;;;51.70;14.05;;;0.10;99.90;;;;;;5044621;28;20106;-83
2022/12/11 03:10:18;;;;;;;51.25;13.65;;;0.50;99.90;;;;;;5027939;28;20049;-83
2022/12/11 03:12:48;;;;;;;64.47;16.73;;;0.20;99.90;;;;;;5027589;28;20045;-82
2022/12/11 03:15:16;;;;;;;37.80;10.93;;;0.10;99.90;;;;;;5027712;28;20047;-83
2022/12/11 03:18:08;;;;;;;49.92;13.77;;;0.10;99.90;;;;;;5027552;28;20052;-83
2022/12/11 03:20:42;;;;;;;49.33;12.82;;;0.10;99.90;;;;;;5027029;28;20037;-83
2022/12/11 03:23:46;;;;;;;44.58;11.82;;;0.10;99.90;;;;;;5027935;28;20030;-83
2022/12/11 03:26:16;;;;;;;59.55;13.48;;;0.10;99.90;;;;;;5026132;28;20054;-83
2022/12/11 03:28:49;;;;;;;54.78;12.77;;;0.10;99.90;;;;;;5012004;28;20041;-83
2022/12/11 03:31:33;;;;;;;46.85;12.30;;;0.10;99.90;;;;;;5031431;28;20383;-83
2022/12/11 03:34:03;;;;;;;50.88;13.48;;;0.90;99.90;;;;;;5048135;28;20042;-83
2022/12/11 03:36:35;;;;;;;53.72;13.95;;;1.40;99.90;;;;;;5014628;28;20076;-83
2022/12/11 03:39:06;;;;;;;54.22;13.95;;;0.10;99.90;;;;;;5048075;28;20045;-83
2022/12/11 03:41:35;;;;;;;53.92;13.50;;;0.20;99.90;;;;;;5030713;28;20107;-83
2022/12/11 03:44:01;;;;;;;57.63;15.13;;;0.20;99.90;;;;;;5031119;28;20030;-83
2022/12/11 03:46:30;;;;;;;51.97;13.63;;;0.50;99.90;;;;;;5030910;28;20037;-83
2022/12/11 03:49:05;;;;;;;47.35;13.02;;;0.10;99.90;;;;;;5014902;28;20120;-83
2022/12/11 03:51:32;;;;;;;61.78;14.50;;;0.10;99.90;;;;;;5029359;28;20045;-83
2022/12/11 03:53:59;;;;;;;56.13;14.07;;;0.10;99.90;;;;;;5031336;28;20514;-83
2022/12/11 03:56:27;;;;;;;54.88;14.02;;;0.10;99.90;;;;;;5031262;28;20033;-83
2022/12/11 03:58:53;;;;;;;57.97;13.10;;;1.30;99.90;;;;;;5028705;28;20058;-83
2022/12/11 04:01:19;;;;;;;53.33;13.38;;;0.10;99.90;;;;;;5031024;28;20037;-83
2022/12/11 04:03:44;;;;;;;46.95;12.63;;;0.10;99.90;;;;;;5030645;28;20045;-83
2022/12/11 04:06:10;;;;;;;52.75;13.55;;;0.20;99.90;;;;;;5030992;28;20430;-83
2022/12/11 04:08:36;;;;;;;52.72;13.98;;;0.20;99.90;;;;;;5047160;28;20056;-83
2022/12/11 04:15:00;;;;;;;49.70;12.45;;;0.80;99.90;;;;;;5030279;28;20289;-83
2022/12/11 04:16:33;;;;;;;45.22;11.48;;;0.20;99.90;;;;;;5028420;28;20413;-83
2022/12/11 04:24:27;;;;;;;43.30;11.90;;;0.80;99.90;;;;;;5046119;28;20044;-83
2022/12/11 04:26:52;;;;;;;43.00;11.43;;;0.20;99.90;;;;;;5013605;28;20041;-83
2022/12/11 04:29:18;;;;;;;42.43;11.47;;;0.20;99.90;;;;;;5046740;28;20281;-83
2022/12/11 04:31:44;;;;;;;46.60;12.25;;;0.20;99.90;;;;;;5030407;28;20135;-83
2022/12/11 04:34:10;;;;;;;44.42;12.68;;;0.20;99.90;;;;;;5014213;28;20500;-83
2022/12/11 04:36:36;;;;;;;49.85;12.82;;;0.20;99.90;;;;;;5030170;28;20080;-83
2022/12/11 04:39:04;;;;;;;36.63;11.93;;;0.30;99.90;;;;;;5030208;28;20041;-83
2022/12/11 04:41:30;;;;;;;44.05;12.13;;;0.30;99.90;;;;;;5030426;28;20112;-83
2022/12/11 04:43:55;;;;;;;41.47;11.95;;;0.30;99.90;;;;;;4997775;28;20069;-82
2022/12/11 04:46:23;;;;;;;46.63;12.45;;;0.30;99.90;;;;;;5046608;28;20422;-82
2022/12/11 04:48:49;;;;;;;42.72;12.35;;;0.30;99.90;;;;;;5013519;28;20041;-83
2022/12/11 04:51:16;;;;;;;43.38;11.68;;;0.30;99.90;;;;;;5030113;28;20099;-83
2022/12/11 04:53:41;;;;;;;;;;;0.30;99.90;;;;;;5046690;28;20037;-84
2022/12/11 04:56:09;;;;;;;43.63;12.30;;;0.30;99.90;;;;;;5030082;28;19921;-83
2022/12/11 04:58:35;;;;;;;38.90;11.07;;;0.40;99.90;;;;;;5029963;28;20068;-83
2022/12/11 05:01:08;;;;;;;32.33;10.50;;;0.30;99.90;;;;;;5025320;28;20041;-83
2022/12/11 05:03:34;;;;;;;42.38;11.63;;;0.30;99.90;;;;;;5013526;28;20033;-83
2022/12/11 05:05:59;;;;;;;37.35;11.23;;;0.30;99.90;;;;;;5046659;28;20046;-83
2022/12/11 05:08:25;;;;;;;44.63;11.55;;;0.40;99.90;;;;;;5029981;28;20037;-83
2022/12/11 05:10:56;;;;;;;49.60;13.50;;;0.40;99.90;;;;;;5029382;28;20068;-83
2022/12/11 05:13:22;;;;;;;48.25;12.48;;;0.40;99.90;;;;;;5026790;28;20799;-83
2022/12/11 05:15:47;;;;;;;42.80;13.05;;;0.40;99.90;;;;;;5029066;28;20121;-83
2022/12/11 05:18:13;;;;;;;50.92;12.73;;;0.40;99.90;;;;;;5045984;28;20359;-82
2022/12/11 05:20:39;;;;;;;48.23;13.33;;;0.40;99.90;;;;;;5029640;28;20140;-83
2022/12/11 05:23:04;;;;;;;38.97;11.95;;;0.40;99.90;;;;;;5029524;28;20383;-83
2022/12/11 05:25:30;;;;;;;37.70;11.43;;;0.40;99.90;;;;;;5029249;28;20045;-83
2022/12/11 05:27:56;;;;;;;48.42;12.98;;;0.40;99.90;;;;;;5028747;28;20408;-82
2022/12/11 05:30:21;;;;;;;46.65;11.13;;;0.40;99.90;;;;;;5012788;28;20394;-83
2022/12/11 05:32:47;;;;;;;42.28;12.80;;;0.50;99.90;;;;;;5028839;28;20132;-83
2022/12/11 05:35:13;;;;;;;31.90;8.93;;;1.00;99.90;;;;;;5029251;28;20153;-84
2022/12/11 05:37:39;;;;;;;40.08;12.25;;;0.50;99.90;;;;;;5028805;28;20126;-84
2022/12/11 05:40:07;;;;;;;42.67;11.82;;;0.70;99.90;;;;;;5029016;28;20137;-83
2022/12/11 05:42:33;;;;;;;38.97;12.90;;;0.50;99.90;;;;;;5029248;28;20117;-84
2022/12/11 05:44:59;;;;;;;44.15;11.77;;;0.40;99.90;;;;;;5028696;28;20041;-83
2022/12/11 05:47:25;;;;;;;31.67;10.50;;;0.50;99.90;;;;;;5028561;28;20045;-83
2022/12/11 05:49:51;;;;;;;40.50;11.97;;;0.40;99.90;;;;;;5028542;28;20068;-84
2022/12/11 05:52:16;;;;;;;36.65;11.55;;;0.50;99.90;;;;;;5011663;28;20286;-83
2022/12/11 05:54:42;;;;;;;38.70;11.48;;;0.50;99.90;;;;;;5012177;28;20397;-83
2022/12/11 05:57:08;;;;;;;40.33;13.27;;;0.40;99.90;;;;;;5028526;28;20446;-83
2022/12/11 05:59:34;;;;;;;45.78;12.02;;;1.30;99.90;;;;;;5045338;28;20956;-83
2022/12/11 06:02:00;;;;;;;43.20;12.40;;;0.50;99.90;;;;;;5045159;28;20079;-83
2022/12/11 06:04:25;;;;;;;45.17;12.98;;;0.50;99.90;;;;;;5028570;28;20030;-83
2022/12/11 06:06:54;;;;;;;48.55;13.57;;;0.40;99.90;;;;;;5028545;28;20037;-84
2022/12/11 06:09:19;;;;;;;47.38;12.23;;;0.40;99.90;;;;;;5028147;28;20041;-83
2022/12/11 06:11:45;;;;;;;35.00;11.70;;;0.40;99.90;;;;;;5044886;28;20378;-84
2022/12/11 06:14:12;;;;;;;39.63;11.33;;;0.40;99.90;;;;;;5044914;28;20659;-83
2022/12/11 06:16:37;;;;;;;39.00;11.98;;;0.40;99.90;;;;;;5012108;28;20296;-84
2022/12/11 06:19:03;;;;;;;40.45;12.93;;;0.40;99.90;;;;;;5045329;28;20124;-84
2022/12/11 06:21:31;;;;;;;36.88;10.88;;;0.40;99.90;;;;;;5044989;28;20052;-83
2022/12/11 06:23:58;;;;;;;44.13;12.20;;;0.40;99.90;;;;;;5044478;28;20155;-83
2022/12/11 06:26:25;;;;;;;42.03;12.15;;;0.40;99.90;;;;;;5028036;28;20033;-83
2022/12/11 06:28:51;;;;;;;39.45;11.25;;;0.40;99.90;;;;;;5027526;28;20446;-83
2022/12/11 06:31:18;;;;;;;43.22;11.90;;;1.60;99.90;;;;;;5028004;28;20060;-84
2022/12/11 06:33:44;;;;;;;39.25;12.15;;;0.40;99.90;;;;;;5027954;28;20049;-84
2022/12/11 06:36:16;;;;;;;42.40;12.57;;;0.40;99.90;;;;;;5011563;28;20045;-83
2022/12/11 06:38:42;;;;;;;41.08;12.43;;;0.50;99.90;;;;;;5027553;28;20108;-83
2022/12/11 06:41:08;;;;;;;38.42;12.00;;;0.50;99.90;;;;;;5028296;28;20033;-83
2022/12/11 06:43:35;;;;;;;42.72;12.93;;;0.50;99.90;;;;;;5028245;28;20061;-83
2022/12/11 06:46:06;;;;;;;48.08;12.27;;;1.60;99.90;;;;;;5027898;28;20038;-83
2022/12/11 06:48:32;;;;;;;41.50;11.63;;;0.60;99.90;;;;;;5028016;28;20045;-84
2022/12/11 06:50:58;;;;;;;37.83;11.40;;;0.50;99.90;;;;;;5025329;28;20049;-83
2022/12/11 06:53:24;;;;;;;32.60;11.07;;;0.50;99.90;;;;;;5028268;28;20516;-83
2022/12/11 06:55:49;;;;;;;43.35;13.45;;;0.50;99.90;;;;;;5011321;28;20041;-84
2022/12/11 06:58:15;;;;;;;36.23;10.27;;;0.50;99.90;;;;;;5027549;28;20045;-83
2022/12/11 07:00:41;;;;;;;44.08;11.15;;;0.50;99.90;;;;;;5024211;28;20367;-83
2022/12/11 07:03:07;;;;;;;30.83;10.18;;;0.50;99.90;;;;;;5027831;28;20112;-83
2022/12/11 07:05:33;;;;;;;41.17;11.93;;;0.50;99.90;;;;;;5032071;28;20046;-83
2022/12/11 07:07:59;;;;;;;36.90;10.57;;;0.50;99.90;;;;;;5045492;28;20281;-83
2022/12/11 07:10:25;;;;;;;37.30;11.27;;;0.60;99.90;;;;;;5048302;28;20115;-84
2022/12/11 07:12:53;;;;;;;34.00;10.45;;;0.50;99.90;;;;;;5031345;28;20103;-84
2022/12/11 07:15:19;;;;;;;34.10;10.15;;;0.60;99.90;;;;;;5048107;28;20045;-84
2022/12/11 07:17:45;;;;;;;38.45;11.27;;;0.50;99.90;;;;;;5031064;28;20072;-83
2022/12/11 07:20:11;;;;;;;38.17;11.23;;;0.50;99.90;;;;;;5015019;28;20064;-84
2022/12/11 07:22:37;;;;;;;42.08;11.85;;;0.50;99.90;;;;;;5031759;28;20048;-84
2022/12/11 07:25:03;;;;;;;39.80;13.13;;;0.50;99.90;;;;;;5031017;28;20167;-84
2022/12/11 07:27:28;;;;;;;41.38;10.65;;;0.50;99.90;;;;;;5048215;28;20481;-83
2022/12/11 07:29:54;;;;;;;40.13;11.70;;;0.50;99.90;;;;;;5030913;28;20053;-83
2022/12/11 07:32:21;;;;;;;41.97;11.07;;;0.50;99.90;;;;;;5047851;28;20045;-83
2022/12/11 07:34:50;;;;;;;42.17;12.60;;;0.70;99.90;;;;;;5030720;28;20045;-83
2022/12/11 07:37:16;;;;;;;33.30;10.93;;;0.50;99.90;;;;;;5031033;28;20077;-83
2022/12/11 07:39:41;;;;;;;37.58;11.93;;;0.50;99.90;;;;;;5031047;28;20044;-83
2022/12/11 07:42:07;;;;;;;41.33;11.30;;;0.50;99.90;;;;;;5030803;28;20038;-84
2022/12/11 07:44:33;;;;;;;43.67;11.63;;;0.60;99.90;;;;;;5031595;28;20384;-84
2022/12/11 07:46:58;;;;;;;41.07;11.13;;;0.50;99.90;;;;;;5047470;28;20044;-84
2022/12/11 07:49:24;;;;;;;37.97;11.32;;;0.50;99.90;;;;;;5031212;28;20044;-84
2022/12/11 07:51:50;;;;;;;39.03;10.93;;;0.50;99.90;;;;;;5031984;28;20041;-85
2022/12/11 07:54:16;;;;;;;34.35;9.13;;;0.50;99.90;;;;;;5034037;28;20045;-85
2022/12/11 07:56:43;;;;;;;39.97;11.80;;;0.50;99.90;;;;;;5032394;28;20053;-79
2022/12/11 07:59:09;;;;;;;43.92;11.68;;;0.50;99.90;;;;;;5031349;28;20038;-80
2022/12/11 08:01:35;;;;;;;50.47;12.80;;;0.50;99.90;;;;;;5030776;28;20034;-80
2022/12/11 08:04:04;;;;;;;46.58;11.70;;;0.50;99.90;;;;;;5030566;28;20073;-82
2022/12/11 08:06:32;;;;;;;37.15;10.85;;;0.50;99.90;;;;;;5024833;28;20042;-81
2022/12/11 08:08:59;;;;;;;46.40;12.55;;;0.50;99.90;;;;;;5027407;28;20060;-80
2022/12/11 08:11:26;;;;;;;44.50;12.50;;;0.50;99.90;;;;;;5013741;28;20037;-80
2022/12/11 08:13:52;;;;;;;;;;;0.50;99.90;;;;;;5024454;28;20474;-79
2022/12/11 08:16:18;;;;;;;47.63;12.38;;;0.50;99.90;;;;;;5024184;28;19936;-79
2022/12/11 08:18:45;;;;;;;46.47;12.38;;;0.80;99.90;;;;;;5030403;28;20482;-79
2022/12/11 08:21:16;;;;;;;49.22;13.05;;;0.50;99.90;;;;;;5029984;28;20496;-79
2022/12/11 08:23:42;;;;;;;52.22;12.77;;;0.70;99.90;;;;;;5029939;28;20180;-78
2022/12/11 08:26:12;;;;;;;41.60;12.40;;;0.50;99.90;;;;;;5029857;28;20057;-80
2022/12/11 08:28:38;;;;;;;53.05;13.00;;;0.50;99.90;;;;;;5030301;28;20056;-80
2022/12/11 08:31:05;;;;;;;44.30;14.02;;;0.50;99.90;;;;;;5019356;28;20062;-81
2022/12/11 08:33:31;;;;;;;46.28;12.60;;;0.50;99.90;;;;;;5006322;28;20053;-81
2022/12/11 08:35:57;;;;;;;48.67;12.40;;;0.50;99.90;;;;;;5038576;28;20104;-81
2022/12/11 08:38:23;;;;;;;46.10;13.20;;;0.50;99.90;;;;;;5022380;28;20084;-80
2022/12/11 08:40:48;;;;;;;40.72;12.88;;;1.50;99.90;;;;;;5006630;28;20037;-81
2022/12/11 08:43:14;;;;;;;43.27;13.20;;;0.60;99.90;;;;;;5037466;28;20052;-80
2022/12/11 08:45:39;;;;;;;49.33;13.63;;;0.50;99.90;;;;;;5021209;28;20379;-80
2022/12/11 08:48:06;;;;;;;49.90;12.80;;;1.50;99.90;;;;;;5036560;28;20083;-80
2022/12/11 08:50:31;;;;;;;48.10;12.88;;;0.60;99.90;;;;;;5024211;28;20280;-80
2022/12/11 08:52:57;;;;;;;48.33;13.75;;;0.60;99.90;;;;;;5038607;28;20133;-80
2022/12/11 08:55:23;;;;;;;45.67;13.73;;;0.60;99.90;;;;;;5037997;28;20460;-80
2022/12/11 08:57:49;;;;;;;51.35;13.82;;;0.60;99.90;;;;;;5038006;28;20341;-80
2022/12/11 09:00:15;;;;;;;44.70;12.55;;;0.50;99.90;;;;;;5020428;28;20081;-81
2022/12/11 09:02:41;;;;;;;45.05;13.35;;;0.60;99.90;;;;;;5020668;28;20033;-80
2022/12/11 09:05:08;;;;;;;44.78;12.82;;;0.60;99.90;;;;;;5018811;28;20037;-81
2022/12/11 09:07:36;;;;;;;44.63;13.07;;;0.60;99.90;;;;;;5004183;28;20034;-80
2022/12/11 09:10:03;;;;;;;48.78;13.70;;;0.60;99.90;;;;;;5019473;28;20048;-80
2022/12/11 09:12:28;;;;;;;45.55;12.40;;;0.80;99.90;;;;;;5019656;28;20160;-80
2022/12/11 09:14:54;;;;;;;46.15;13.95;;;0.70;99.90;;;;;;5023825;28;20049;-81
2022/12/11 09:17:19;;;;;;;47.93;13.70;;;0.60;99.90;;;;;;5023870;28;20053;-80
2022/12/11 09:19:45;;;;;;;49.13;13.53;;;0.60;99.90;;;;;;5040196;28;20288;-80
2022/12/11 09:22:11;;;;;;;47.25;12.23;;;0.60;99.90;;;;;;5020357;28;20172;-80
2022/12/11 09:24:37;;;;;;;48.15;14.23;;;0.60;99.90;;;;;;5018177;28;20046;-80
2022/12/11 09:27:04;;;;;;;46.35;13.68;;;1.40;99.90;;;;;;5019241;28;20038;-80
2022/12/11 09:29:30;;;;;;;51.45;14.60;;;0.60;99.90;;;;;;5020037;28;20037;-80
2022/12/11 09:31:56;;;;;;;55.25;14.63;;;0.60;99.90;;;;;;5028147;28;20103;-80
2022/12/11 09:34:22;;;;;;;47.30;15.32;;;1.70;99.90;;;;;;5012981;28;20041;-80
2022/12/11 09:36:47;;;;;;;45.08;12.90;;;1.00;99.90;;;;;;5045549;28;20076;-80
2022/12/11 09:39:14;;;;;;;48.10;13.50;;;0.60;99.90;;;;;;5045361;28;20478;-81
2022/12/11 09:42:02;;;;;;;48.17;13.32;;;0.70;99.90;;;;;;5012982;28;20045;-81
2022/12/11 09:44:33;;;;;;;50.80;13.98;;;0.70;99.90;;;;;;5029106;28;20069;-84
2022/12/11 09:46:59;;;;;;;53.58;14.95;;;0.70;99.90;;;;;;5028677;28;20041;-79
2022/12/11 09:49:27;;;;;;;46.88;13.00;;;0.70;99.90;;;;;;5012348;28;20145;-78
2022/12/11 09:52:16;;;;;;;46.25;12.93;;;0.70;99.90;;;;;;5028972;28;20049;-78
2022/12/11 09:55:03;;;;;;;52.53;13.70;;;0.80;99.90;;;;;;5022225;28;20045;-78
2022/12/11 09:57:55;;;;;;;;;;;0.80;99.90;;;;;;5045822;28;20037;-78
2022/12/11 10:00:39;;;;;;;50.33;13.98;;;0.80;99.90;;;;;;5026914;28;19921;-80
2022/12/11 10:03:23;;;;;;;49.35;13.93;;;0.80;99.90;;;;;;5028495;28;20051;-82
2022/12/11 10:06:16;;;;;;;51.53;13.73;;;0.80;99.90;;;;;;5045761;28;20389;-81
2022/12/11 10:09:06;;;;;;;46.80;13.27;;;0.80;99.90;;;;;;5011014;28;20057;-81
2022/12/11 10:11:38;;;;;;;51.78;13.90;;;0.80;99.90;;;;;;5033887;28;20046;-81
2022/12/11 10:14:39;;;;;;;49.50;13.63;;;0.80;99.90;;;;;;5017612;28;20386;-81
2022/12/11 10:17:10;;;;;;;49.10;14.35;;;0.80;99.90;;;;;;5018551;28;20073;-81
2022/12/11 10:19:37;;;;;;;55.60;14.45;;;0.90;99.90;;;;;;5035473;28;20045;-81
2022/12/11 10:22:02;;;;;;;;;;;0.90;99.90;;;;;;5021619;28;20030;-81
2022/12/11 10:24:48;;;;;;;54.78;14.02;;;0.80;99.90;;;;;;5028713;28;19916;-82
2022/12/11 10:27:20;;;;;;;50.58;14.75;;;0.80;99.90;;;;;;5027891;28;20050;-80
2022/12/11 10:30:00;;;;;;;45.20;14.10;;;1.20;99.90;;;;;;5028301;28;20068;-80
2022/12/11 10:32:45;;;;;;;56.42;14.98;;;0.90;99.90;;;;;;5011969;28;20412;-80
2022/12/11 10:35:43;;;;;;;46.47;15.85;;;0.90;99.90;;;;;;5044421;28;20033;-80
2022/12/11 10:38:29;;;;;;;53.20;15.90;;;0.90;99.90;;;;;;5025572;28;20081;-81
2022/12/11 10:41:13;;;;;;;46.72;16.13;;;0.90;99.90;;;;;;5021164;28;20038;-81
2022/12/11 10:43:45;;;;;;;51.95;15.55;;;0.90;99.90;;;;;;5006522;28;20048;-81
2022/12/11 10:46:26;;;;;;;48.05;14.82;;;2.10;99.90;;;;;;5025556;28;20740;-81
2022/12/11 10:49:00;;;;;;;43.40;13.30;;;1.00;99.90;;;;;;5045859;28;20041;-81
2022/12/11 10:51:36;;;;;;;45.80;13.07;;;1.00;99.90;;;;;;5033959;28;20444;-81
2022/12/11 10:54:07;;;;;;;48.10;13.60;;;1.80;99.90;;;;;;5018323;28;20048;-81
2022/12/11 10:56:34;;;;;;;49.88;15.93;;;1.00;99.90;;;;;;5034538;28;20038;-81
2022/12/11 10:59:00;;;;;;;51.95;14.80;;;1.00;99.90;;;;;;5034750;28;20033;-82
2022/12/11 11:01:29;;;;;;;45.45;12.98;;;1.00;99.90;;;;;;5052841;28;20041;-82
2022/12/11 11:04:32;;;;;;;41.90;13.98;;;1.00;99.90;;;;;;5034635;28;20033;-83
2022/12/11 11:07:12;;;;;;;46.17;14.05;;;1.00;99.90;;;;;;5027895;28;20509;-82
2022/12/11 11:09:39;;;;;;;41.45;13.05;;;1.00;99.90;;;;;;5034793;28;20044;-82
2022/12/11 11:12:16;;;;;;;;;;;1.00;99.90;;;;;;5018262;28;20045;-80
2022/12/11 11:14:42;;;;;;;50.15;13.85;;;1.10;99.90;;;;;;5034684;28;19917;-84
2022/12/11 11:17:14;;;;;;;46.20;12.73;;;1.10;99.90;;;;;;5051079;28;20119;-82
2022/12/11 11:19:44;;;;;;;50.38;13.63;;;1.10;99.90;;;;;;5018591;28;20033;-84
2022/12/11 11:22:16;;;;;;;44.42;12.82;;;1.10;99.90;;;;;;5032561;28;20037;-84
2022/12/11 11:24:51;;;;;;;48.40;16.10;;;1.10;99.90;;;;;;5034369;28;20115;-83
2022/12/11 11:27:34;;;;;;;65.22;20.73;;;1.10;99.90;;;;;;5051369;28;20490;-80
2022/12/11 11:30:07;;;;;;;52.92;15.73;;;1.10;99.90;;;;;;5017943;28;20068;-83
2022/12/11 11:32:37;;;;;;;48.95;14.38;;;1.10;99.90;;;;;;5032718;28;20432;-83
2022/12/11 11:35:20;;;;;;;47.45;14.38;;;1.10;99.90;;;;;;5034480;28;20124;-82
2022/12/11 11:38:13;;;;;;;42.13;14.43;;;1.10;99.90;;;;;;5032991;28;20104;-82
2022/12/11 11:41:08;;;;;;;54.22;16.75;;;1.10;99.90;;;;;;5031929;28;20060;-82
2022/12/11 11:43:37;;;;;;;40.92;13.70;;;1.10;99.90;;;;;;5034323;28;20045;-80
2022/12/11 11:46:22;;;;;;;44.42;13.82;;;1.10;99.90;;;;;;5050806;28;20049;-81
2022/12/11 11:49:17;;;;;;;44.35;14.27;;;1.20;99.90;;;;;;5032551;28;20053;-82
2022/12/11 11:51:50;;;;;;;49.85;14.18;;;1.20;99.90;;;;;;4980657;28;20173;-84
2022/12/11 11:54:50;;;;;;;48.78;13.57;;;1.90;99.90;;;;;;5016101;28;20401;-84
2022/12/11 11:57:28;;;;;;;47.75;13.65;;;1.20;99.90;;;;;;5030837;28;20501;-83
2022/12/11 11:59:58;;;;;;;46.90;15.10;;;1.20;99.90;;;;;;5047160;28;20080;-81
2022/12/11 12:02:23;;;;;;;46.13;14.23;;;1.20;99.90;;;;;;5030671;28;20121;-80
2022/12/11 12:04:50;;;;;;;49.42;14.82;;;1.10;99.90;;;;;;5047366;28;20132;-79
2022/12/11 12:07:46;;;;;;;46.38;14.07;;;1.60;99.90;;;;;;5030492;28;20561;-81
2022/12/11 12:10:20;;;;;;;48.40;14.82;;;1.20;99.90;;;;;;5030182;28;20041;-80
2022/12/11 12:13:06;;;;;;;44.75;14.32;;;2.10;99.90;;;;;;5030806;28;20072;-80
2022/12/11 12:15:53;;;;;;;44.65;13.23;;;1.20;99.90;;;;;;5030055;28;20084;-81
2022/12/11 12:18:40;;;;;;;48.70;15.38;;;1.20;99.90;;;;;;5011213;28;20071;-79
2022/12/11 12:21:37;;;;;;;45.92;14.23;;;1.20;99.90;;;;;;5030391;28;20179;-79
2022/12/11 12:24:32;;;;;;;46.45;16.45;;;1.40;99.90;;;;;;5020696;28;20053;-81
2022/12/11 12:27:18;;;;;;;47.38;15.45;;;1.30;99.90;;;;;;5031062;28;20549;-81
2022/12/11 12:29:49;;;;;;;45.22;13.70;;;1.30;99.90;;;;;;5013983;28;20057;-81
2022/12/11 12:32:27;;;;;;;40.05;13.85;;;1.30;99.90;;;;;;5030185;28;20041;-80
2022/12/11 12:35:14;;;;;;;49.40;14.00;;;1.30;99.90;;;;;;5013869;28;20087;-80
2022/12/11 12:38:01;;;;;;;50.03;14.27;;;1.30;99.90;;;;;;4997739;28;20046;-80
2022/12/11 12:40:40;;;;;;;53.58;15.18;;;1.30;99.90;;;;;;5002546;28;20539;-80
2022/12/11 12:43:24;;;;;;;46.88;17.13;;;1.30;99.90;;;;;;5018814;28;20033;-80
2022/12/11 12:45:53;;;;;;;46.17;14.52;;;1.30;99.90;;;;;;5023359;28;20099;-80
2022/12/11 12:48:21;;;;;;;43.35;13.70;;;1.30;99.90;;;;;;5034485;28;20037;-80
2022/12/11 12:50:49;;;;;;;48.40;14.77;;;1.30;99.90;;;;;;5023468;28;20132;-80
2022/12/11 12:53:27;;;;;;;41.97;12.30;;;1.30;99.90;;;;;;5012661;28;20045;-80
2022/12/11 12:55:53;;;;;;;46.88;12.95;;;1.30;99.90;;;;;;5020222;28;20041;-80
2022/12/11 12:58:39;;;;;;;46.88;14.38;;;1.30;99.90;;;;;;5019850;28;20570;-80
2022/12/11 13:01:11;;;;;;;47.03;14.20;;;1.30;99.90;;;;;;5022915;28;20042;-80